AXIS43 EGUN-LGSA
Flight info
| Callsign | AXIS43 |
|---|---|
| Flight time | 2h 54m |
| Altitude | 41000 |
| Route | CLN L608 SUMUM/N0317F190 L608 SASKI L179 NIK/N0460F410 M624 DIK M150 GEBDA/N0464F430 Y173 PABLA/N0463F410 Z721 UTABA L607 ELMEM N606 OTRES T307 DIRAB DCT ROTAR DCT MADOS DCT EBELA DCT PITAS UN732 KRK UA14 ARA UL612 TRL UJ65 SOKRI |
| Aircraft | GLF5/M-SBDE2E3FGHIJ3J4J5P2RWXY/LB1D1 |
Departure
| Time | 2026-05-08 22:25 |
|---|---|
| Airport | RAF Mildenhall (EGUN) |
Arrival
| Time | 2026-05-09 01:19 |
|---|---|
| Airport | Chania International Airport (LGSA) |
| Time | Latitude | Longitude | Altitude | Speed | Heading |
|---|---|---|---|---|---|
| 2026-05-08 22:22 | 52.36729 | 0.47604 | 29 ft | 12 kts | 216° |
| 2026-05-08 22:23 | 52.36643 | 0.47524 | 29 ft | 17 kts | 208° |
| 2026-05-08 22:23 | 52.36521 | 0.47410 | 29 ft | 22 kts | 208° |
| 2026-05-08 22:23 | 52.36405 | 0.47308 | 29 ft | 8 kts | 186° |
| 2026-05-08 22:23 | 52.36379 | 0.47355 | 29 ft | 0 kts | 101° |
| 2026-05-08 22:24 | 52.36379 | 0.47356 | 29 ft | 1 kts | 101° |
| 2026-05-08 22:24 | 52.36316 | 0.47791 | 30 ft | 88 kts | 103° |
| 2026-05-08 22:25 | 52.36100 | 0.49284 | 136 ft | 168 kts | 103° |
| 2026-05-08 22:25 | 52.35808 | 0.51165 | 1115 ft | 173 kts | 103° |
| 2026-05-08 22:25 | 52.35529 | 0.53069 | 2113 ft | 189 kts | 103° |
| 2026-05-08 22:25 | 52.35173 | 0.55280 | 3037 ft | 214 kts | 112° |
| 2026-05-08 22:26 | 52.34227 | 0.57248 | 4029 ft | 236 kts | 135° |
| 2026-05-08 22:26 | 52.32942 | 0.59089 | 5000 ft | 259 kts | 139° |
| 2026-05-08 22:26 | 52.31501 | 0.60976 | 5956 ft | 272 kts | 141° |
| 2026-05-08 22:26 | 52.29981 | 0.62858 | 6901 ft | 277 kts | 142° |
| 2026-05-08 22:27 | 52.28432 | 0.64720 | 8288 ft | 282 kts | 143° |
| 2026-05-08 22:27 | 52.26839 | 0.66602 | 9614 ft | 288 kts | 144° |
| 2026-05-08 22:27 | 52.25231 | 0.68485 | 10950 ft | 292 kts | 144° |
| 2026-05-08 22:27 | 52.23585 | 0.70401 | 12242 ft | 297 kts | 145° |
| 2026-05-08 22:28 | 52.21912 | 0.72340 | 13574 ft | 301 kts | 146° |
| 2026-05-08 22:28 | 52.20199 | 0.74322 | 14837 ft | 306 kts | 146° |
| 2026-05-08 22:28 | 52.18480 | 0.76307 | 16132 ft | 311 kts | 146° |
| 2026-05-08 22:28 | 52.16721 | 0.78336 | 17367 ft | 316 kts | 147° |
| 2026-05-08 22:29 | 52.14940 | 0.80387 | 18628 ft | 320 kts | 147° |
| 2026-05-08 22:29 | 52.13122 | 0.82478 | 19732 ft | 329 kts | 147° |
| 2026-05-08 22:29 | 52.11236 | 0.84647 | 20839 ft | 337 kts | 147° |
| 2026-05-08 22:29 | 52.09328 | 0.86838 | 21910 ft | 345 kts | 147° |
| 2026-05-08 22:30 | 52.07346 | 0.89112 | 22982 ft | 353 kts | 147° |
| 2026-05-08 22:30 | 52.05333 | 0.91418 | 24052 ft | 360 kts | 147° |
| 2026-05-08 22:30 | 52.03267 | 0.93784 | 25108 ft | 368 kts | 147° |
| 2026-05-08 22:30 | 52.01165 | 0.96188 | 26173 ft | 375 kts | 147° |
| 2026-05-08 22:31 | 51.99031 | 0.98624 | 27203 ft | 381 kts | 147° |
| 2026-05-08 22:31 | 51.96826 | 1.01139 | 28147 ft | 390 kts | 147° |
| 2026-05-08 22:31 | 51.94589 | 1.03687 | 29106 ft | 397 kts | 147° |
| 2026-05-08 22:31 | 51.92326 | 1.06262 | 29996 ft | 404 kts | 147° |
| 2026-05-08 22:32 | 51.89997 | 1.08909 | 30909 ft | 410 kts | 147° |
| 2026-05-08 22:32 | 51.87648 | 1.11575 | 31740 ft | 416 kts | 147° |
| 2026-05-08 22:32 | 51.85432 | 1.14567 | 32596 ft | 420 kts | 131° |
| 2026-05-08 22:32 | 51.83981 | 1.18687 | 33474 ft | 421 kts | 110° |
| 2026-05-08 22:33 | 51.83028 | 1.23142 | 34379 ft | 420 kts | 108° |
| 2026-05-08 22:33 | 51.82071 | 1.27604 | 35190 ft | 420 kts | 108° |
| 2026-05-08 22:33 | 51.81117 | 1.32026 | 35997 ft | 417 kts | 108° |
| 2026-05-08 22:33 | 51.80159 | 1.36451 | 36779 ft | 415 kts | 109° |
| 2026-05-08 22:34 | 51.79211 | 1.40816 | 37732 ft | 413 kts | 109° |
| 2026-05-08 22:34 | 51.78252 | 1.45215 | 38499 ft | 414 kts | 109° |
| 2026-05-08 22:34 | 51.77296 | 1.49595 | 38792 ft | 424 kts | 109° |
| 2026-05-08 22:34 | 51.76300 | 1.54149 | 39104 ft | 434 kts | 109° |
| 2026-05-08 22:35 | 51.75280 | 1.58801 | 39388 ft | 442 kts | 109° |
| 2026-05-08 22:35 | 51.74238 | 1.63538 | 39683 ft | 451 kts | 109° |
| 2026-05-08 22:35 | 51.73181 | 1.68339 | 39974 ft | 458 kts | 110° |
| 2026-05-08 22:35 | 51.72100 | 1.73231 | 40214 ft | 465 kts | 110° |
| 2026-05-08 22:36 | 51.70997 | 1.78215 | 40366 ft | 472 kts | 110° |
| 2026-05-08 22:36 | 51.69892 | 1.83198 | 40538 ft | 477 kts | 110° |
| 2026-05-08 22:36 | 51.68758 | 1.88298 | 40697 ft | 483 kts | 110° |
| 2026-05-08 22:36 | 51.67616 | 1.93421 | 40861 ft | 488 kts | 110° |
| 2026-05-08 22:37 | 51.66462 | 1.98585 | 41028 ft | 494 kts | 110° |
| 2026-05-08 22:37 | 51.64081 | 2.09193 | 41122 ft | 510 kts | 110° |
| 2026-05-08 22:38 | 51.61624 | 2.20082 | 41119 ft | 528 kts | 110° |
| 2026-05-08 22:38 | 51.59065 | 2.31361 | 41121 ft | 544 kts | 110° |
| 2026-05-08 22:39 | 51.56439 | 2.42873 | 41114 ft | 550 kts | 110° |
| 2026-05-08 22:39 | 51.53801 | 2.54380 | 41111 ft | 552 kts | 110° |
| 2026-05-08 22:40 | 51.51131 | 2.65966 | 41105 ft | 553 kts | 111° |
| 2026-05-08 22:40 | 51.48445 | 2.77564 | 41106 ft | 553 kts | 111° |
| 2026-05-08 22:41 | 51.45752 | 2.89127 | 41102 ft | 553 kts | 110° |
| 2026-05-08 22:41 | 51.43047 | 3.00680 | 41109 ft | 553 kts | 110° |
| 2026-05-08 22:42 | 51.40348 | 3.12146 | 41103 ft | 553 kts | 110° |
| 2026-05-08 22:42 | 51.37604 | 3.23749 | 41106 ft | 554 kts | 111° |
| 2026-05-08 22:43 | 51.34861 | 3.35291 | 41101 ft | 554 kts | 110° |
| 2026-05-08 22:43 | 51.32301 | 3.47049 | 41105 ft | 554 kts | 109° |
| 2026-05-08 22:44 | 51.29753 | 3.58729 | 41100 ft | 554 kts | 109° |
| 2026-05-08 22:44 | 51.27194 | 3.70387 | 41104 ft | 554 kts | 109° |
| 2026-05-08 22:45 | 51.24671 | 3.81817 | 41101 ft | 555 kts | 109° |
| 2026-05-08 22:45 | 51.22091 | 3.93435 | 41109 ft | 555 kts | 109° |
| 2026-05-08 22:46 | 51.19494 | 4.05059 | 41100 ft | 555 kts | 110° |
| 2026-05-08 22:46 | 51.16658 | 4.16505 | 41068 ft | 554 kts | 121° |
| 2026-05-08 22:46 | 51.14233 | 4.21266 | 41129 ft | 550 kts | 137° |
| 2026-05-08 22:47 | 51.11366 | 4.25309 | 41115 ft | 552 kts | 140° |
| 2026-05-08 22:47 | 51.05481 | 4.33304 | 41106 ft | 553 kts | 140° |
| 2026-05-08 22:48 | 50.99591 | 4.41243 | 41125 ft | 553 kts | 140° |
| 2026-05-08 22:48 | 50.93735 | 4.49108 | 41100 ft | 554 kts | 140° |
| 2026-05-08 22:49 | 50.88008 | 4.57204 | 41109 ft | 554 kts | 135° |
| 2026-05-08 22:49 | 50.79967 | 4.69942 | 41102 ft | 555 kts | 136° |
| 2026-05-08 22:50 | 50.74491 | 4.78514 | 41104 ft | 556 kts | 136° |
| 2026-05-08 22:50 | 50.68931 | 4.87181 | 41102 ft | 556 kts | 136° |
| 2026-05-08 22:51 | 50.63427 | 4.95740 | 41100 ft | 556 kts | 136° |
| 2026-05-08 22:51 | 50.57911 | 5.04290 | 41089 ft | 556 kts | 136° |
| 2026-05-08 22:52 | 50.52379 | 5.12838 | 41101 ft | 557 kts | 136° |
| 2026-05-08 22:52 | 50.46815 | 5.21406 | 41109 ft | 556 kts | 136° |
| 2026-05-08 22:53 | 50.41271 | 5.29911 | 41109 ft | 556 kts | 136° |
| 2026-05-08 22:53 | 50.35714 | 5.38409 | 41107 ft | 557 kts | 136° |
| 2026-05-08 22:54 | 50.30185 | 5.46834 | 41106 ft | 557 kts | 136° |
| 2026-05-08 22:54 | 50.24585 | 5.55340 | 41107 ft | 556 kts | 136° |
| 2026-05-08 22:55 | 50.19049 | 5.63715 | 41104 ft | 556 kts | 136° |
| 2026-05-08 22:55 | 50.13415 | 5.72211 | 41103 ft | 556 kts | 137° |
| 2026-05-08 22:56 | 50.07824 | 5.80616 | 41102 ft | 556 kts | 137° |
| 2026-05-08 22:56 | 50.02190 | 5.89062 | 41099 ft | 556 kts | 137° |
| 2026-05-08 22:57 | 49.96597 | 5.97417 | 41099 ft | 556 kts | 137° |
| 2026-05-08 22:57 | 49.90979 | 6.05774 | 41108 ft | 556 kts | 137° |
| 2026-05-08 22:58 | 49.85683 | 6.14572 | 41086 ft | 556 kts | 122° |
| 2026-05-08 22:58 | 49.81992 | 6.25180 | 41105 ft | 557 kts | 118° |
| 2026-05-08 22:59 | 49.78346 | 6.35886 | 41104 ft | 558 kts | 118° |
| 2026-05-08 22:59 | 49.74704 | 6.46540 | 41098 ft | 559 kts | 118° |
| 2026-05-08 23:00 | 49.71066 | 6.57158 | 41105 ft | 559 kts | 118° |
| 2026-05-08 23:00 | 49.67390 | 6.67859 | 41099 ft | 560 kts | 119° |
| 2026-05-08 23:01 | 49.63735 | 6.78458 | 41095 ft | 559 kts | 119° |
| 2026-05-08 23:01 | 49.60055 | 6.89084 | 41100 ft | 559 kts | 118° |
| 2026-05-08 23:02 | 49.56372 | 6.99678 | 41093 ft | 559 kts | 119° |
| 2026-05-08 23:02 | 49.52692 | 7.10218 | 41107 ft | 558 kts | 119° |
| 2026-05-08 23:03 | 49.49002 | 7.20740 | 41099 ft | 559 kts | 119° |
| 2026-05-08 23:03 | 49.45277 | 7.31320 | 41089 ft | 559 kts | 119° |
| 2026-05-08 23:04 | 49.41577 | 7.41788 | 41090 ft | 559 kts | 119° |
| 2026-05-08 23:04 | 49.37830 | 7.52344 | 41092 ft | 560 kts | 119° |
| 2026-05-08 23:05 | 49.34085 | 7.62853 | 41083 ft | 560 kts | 119° |
| 2026-05-08 23:05 | 49.30343 | 7.73309 | 41079 ft | 560 kts | 120° |
| 2026-05-08 23:06 | 49.26599 | 7.83731 | 41081 ft | 560 kts | 120° |
| 2026-05-08 23:06 | 49.22812 | 7.94226 | 41083 ft | 561 kts | 120° |
| 2026-05-08 23:07 | 49.20913 | 7.99473 | 41199 ft | 560 kts | 120° |
| 2026-05-08 23:07 | 49.19008 | 8.04724 | 41313 ft | 560 kts | 120° |
| 2026-05-08 23:07 | 49.17117 | 8.09929 | 41425 ft | 560 kts | 120° |
| 2026-05-08 23:07 | 49.15207 | 8.15174 | 41540 ft | 560 kts | 120° |
| 2026-05-08 23:08 | 49.13294 | 8.20358 | 41647 ft | 559 kts | 122° |
| 2026-05-08 23:08 | 49.10823 | 8.24864 | 41736 ft | 555 kts | 140° |
| 2026-05-08 23:08 | 49.07618 | 8.28084 | 41874 ft | 548 kts | 155° |
| 2026-05-08 23:08 | 49.04009 | 8.29880 | 41990 ft | 542 kts | 171° |
| 2026-05-08 23:09 | 49.00235 | 8.30767 | 42136 ft | 541 kts | 174° |
| 2026-05-08 23:09 | 48.96512 | 8.31561 | 42249 ft | 542 kts | 174° |
| 2026-05-08 23:09 | 48.92730 | 8.32347 | 42368 ft | 542 kts | 174° |
| 2026-05-08 23:09 | 48.88999 | 8.33117 | 42486 ft | 541 kts | 174° |
| 2026-05-08 23:10 | 48.85275 | 8.33881 | 42602 ft | 541 kts | 174° |
| 2026-05-08 23:10 | 48.81544 | 8.35153 | 42687 ft | 546 kts | 161° |
| 2026-05-08 23:10 | 48.78213 | 8.37994 | 42822 ft | 549 kts | 144° |
| 2026-05-08 23:10 | 48.75493 | 8.42169 | 42948 ft | 554 kts | 127° |
| 2026-05-08 23:11 | 48.73282 | 8.46942 | 43078 ft | 555 kts | 126° |
| 2026-05-08 23:11 | 48.71049 | 8.51699 | 43076 ft | 556 kts | 126° |
| 2026-05-08 23:11 | 48.66502 | 8.61290 | 43084 ft | 558 kts | 127° |
| 2026-05-08 23:12 | 48.62024 | 8.70691 | 43082 ft | 558 kts | 127° |
| 2026-05-08 23:12 | 48.57395 | 8.80372 | 43075 ft | 558 kts | 127° |
| 2026-05-08 23:13 | 48.52822 | 8.89904 | 43077 ft | 558 kts | 127° |
| 2026-05-08 23:13 | 48.48255 | 8.99388 | 43078 ft | 559 kts | 127° |
| 2026-05-08 23:14 | 48.43628 | 9.08963 | 43080 ft | 559 kts | 127° |
| 2026-05-08 23:14 | 48.39030 | 9.18443 | 43085 ft | 559 kts | 127° |
| 2026-05-08 23:15 | 48.34409 | 9.27940 | 43091 ft | 559 kts | 127° |
| 2026-05-08 23:15 | 48.29797 | 9.37385 | 43090 ft | 560 kts | 127° |
| 2026-05-08 23:16 | 48.24989 | 9.46674 | 43064 ft | 556 kts | 137° |
| 2026-05-08 23:16 | 48.19189 | 9.54343 | 43086 ft | 555 kts | 140° |
| 2026-05-08 23:17 | 48.13337 | 9.61916 | 43083 ft | 556 kts | 140° |
| 2026-05-08 23:17 | 48.07445 | 9.69514 | 43079 ft | 556 kts | 141° |
| 2026-05-08 23:18 | 48.01565 | 9.77071 | 43078 ft | 556 kts | 141° |
| 2026-05-08 23:18 | 47.95702 | 9.84583 | 43087 ft | 556 kts | 141° |
| 2026-05-08 23:19 | 47.89858 | 9.92048 | 43085 ft | 556 kts | 141° |
| 2026-05-08 23:19 | 47.83914 | 9.99613 | 43089 ft | 556 kts | 141° |
| 2026-05-08 23:20 | 47.77732 | 10.06506 | 43099 ft | 555 kts | 144° |
| 2026-05-08 23:20 | 47.71555 | 10.13341 | 43105 ft | 555 kts | 144° |
| 2026-05-08 23:21 | 47.65339 | 10.20206 | 43124 ft | 555 kts | 145° |
| 2026-05-08 23:21 | 47.59155 | 10.27016 | 43129 ft | 555 kts | 145° |
| 2026-05-08 23:22 | 47.52940 | 10.33840 | 43143 ft | 555 kts | 145° |
| 2026-05-08 23:22 | 47.46751 | 10.40614 | 43152 ft | 555 kts | 145° |
| 2026-05-08 23:23 | 47.40563 | 10.47341 | 43153 ft | 554 kts | 147° |
| 2026-05-08 23:23 | 47.33834 | 10.52889 | 43159 ft | 552 kts | 153° |
| 2026-05-08 23:24 | 47.27090 | 10.58234 | 43165 ft | 552 kts | 153° |
| 2026-05-08 23:24 | 47.20290 | 10.63611 | 43168 ft | 553 kts | 153° |
| 2026-05-08 23:25 | 47.13302 | 10.68244 | 43182 ft | 548 kts | 162° |
| 2026-05-08 23:25 | 47.06108 | 10.72174 | 43183 ft | 549 kts | 162° |
| 2026-05-08 23:26 | 47.02644 | 10.74601 | 43156 ft | 554 kts | 148° |
| 2026-05-08 23:26 | 46.99699 | 10.78318 | 43195 ft | 557 kts | 136° |
| 2026-05-08 23:26 | 46.94317 | 10.86522 | 43164 ft | 559 kts | 135° |
| 2026-05-08 23:27 | 46.88948 | 10.94709 | 43171 ft | 560 kts | 135° |
| 2026-05-08 23:27 | 46.83469 | 11.03040 | 43171 ft | 560 kts | 135° |
| 2026-05-08 23:28 | 46.77826 | 11.10858 | 43173 ft | 558 kts | 141° |
| 2026-05-08 23:28 | 46.71962 | 11.18389 | 43169 ft | 558 kts | 140° |
| 2026-05-08 23:29 | 46.66159 | 11.25858 | 43174 ft | 558 kts | 140° |
| 2026-05-08 23:29 | 46.60312 | 11.33365 | 43164 ft | 558 kts | 140° |
| 2026-05-08 23:30 | 46.54450 | 11.40868 | 43147 ft | 559 kts | 140° |
| 2026-05-08 23:30 | 46.48574 | 11.48367 | 43141 ft | 559 kts | 140° |
| 2026-05-08 23:31 | 46.42710 | 11.55828 | 43150 ft | 559 kts | 140° |
| 2026-05-08 23:31 | 46.36789 | 11.63339 | 43145 ft | 558 kts | 140° |
| 2026-05-08 23:32 | 46.30896 | 11.70792 | 43138 ft | 558 kts | 141° |
| 2026-05-08 23:32 | 46.25026 | 11.78196 | 43135 ft | 558 kts | 141° |
| 2026-05-08 23:33 | 46.19184 | 11.85540 | 43134 ft | 559 kts | 141° |
| 2026-05-08 23:33 | 46.13280 | 11.92940 | 43130 ft | 558 kts | 141° |
| 2026-05-08 23:34 | 46.07435 | 12.00247 | 43127 ft | 558 kts | 141° |
| 2026-05-08 23:34 | 46.01515 | 12.07625 | 43117 ft | 559 kts | 141° |
| 2026-05-08 23:35 | 45.95646 | 12.14916 | 43096 ft | 559 kts | 141° |
| 2026-05-08 23:35 | 45.89825 | 12.22129 | 43091 ft | 559 kts | 141° |
| 2026-05-08 23:36 | 45.83835 | 12.29529 | 43092 ft | 558 kts | 141° |
| 2026-05-08 23:36 | 45.77934 | 12.36798 | 43081 ft | 558 kts | 141° |
| 2026-05-08 23:37 | 45.72012 | 12.44074 | 43086 ft | 558 kts | 141° |
| 2026-05-08 23:37 | 45.66101 | 12.51312 | 43078 ft | 558 kts | 141° |
| 2026-05-08 23:38 | 45.60217 | 12.58497 | 43072 ft | 558 kts | 141° |
| 2026-05-08 23:38 | 45.54307 | 12.65694 | 43075 ft | 558 kts | 142° |
| 2026-05-08 23:39 | 45.48403 | 12.72862 | 43072 ft | 558 kts | 142° |
| 2026-05-08 23:39 | 45.42502 | 12.80007 | 43069 ft | 558 kts | 142° |
| 2026-05-08 23:40 | 45.36606 | 12.87125 | 43063 ft | 558 kts | 142° |
| 2026-05-08 23:40 | 45.30697 | 12.94238 | 43061 ft | 559 kts | 142° |
| 2026-05-08 23:41 | 45.25159 | 13.01924 | 43048 ft | 562 kts | 126° |
| 2026-05-08 23:41 | 45.20882 | 13.11198 | 43057 ft | 564 kts | 125° |
| 2026-05-08 23:42 | 45.16584 | 13.20459 | 43055 ft | 564 kts | 125° |
| 2026-05-08 23:42 | 45.12276 | 13.29704 | 43056 ft | 565 kts | 125° |
| 2026-05-08 23:43 | 45.07948 | 13.38962 | 43061 ft | 566 kts | 125° |
| 2026-05-08 23:43 | 45.03609 | 13.48214 | 43060 ft | 567 kts | 125° |
| 2026-05-08 23:44 | 44.99266 | 13.57446 | 43064 ft | 567 kts | 125° |
| 2026-05-08 23:44 | 44.94888 | 13.66722 | 43066 ft | 567 kts | 126° |
| 2026-05-08 23:45 | 44.90478 | 13.76034 | 43068 ft | 566 kts | 126° |
| 2026-05-08 23:45 | 44.86060 | 13.85334 | 43067 ft | 566 kts | 126° |
| 2026-05-08 23:46 | 44.81684 | 13.94515 | 43068 ft | 565 kts | 126° |
| 2026-05-08 23:46 | 44.77313 | 14.03656 | 43065 ft | 565 kts | 126° |
| 2026-05-08 23:47 | 44.72934 | 14.12787 | 43068 ft | 566 kts | 126° |
| 2026-05-08 23:47 | 44.68535 | 14.21927 | 43065 ft | 566 kts | 126° |
| 2026-05-08 23:48 | 44.64094 | 14.31128 | 43061 ft | 565 kts | 126° |
| 2026-05-08 23:48 | 44.59662 | 14.40277 | 43064 ft | 565 kts | 126° |
| 2026-05-08 23:49 | 44.55270 | 14.49319 | 43061 ft | 565 kts | 126° |
| 2026-05-08 23:49 | 44.50837 | 14.58414 | 43064 ft | 565 kts | 126° |
| 2026-05-08 23:50 | 44.46381 | 14.67530 | 43057 ft | 565 kts | 126° |
| 2026-05-08 23:50 | 44.41921 | 14.76625 | 43057 ft | 565 kts | 126° |
| 2026-05-08 23:51 | 44.37471 | 14.85670 | 43053 ft | 565 kts | 126° |
| 2026-05-08 23:51 | 44.33015 | 14.94698 | 43058 ft | 565 kts | 126° |
| 2026-05-08 23:52 | 44.28543 | 15.03735 | 43056 ft | 565 kts | 126° |
| 2026-05-08 23:52 | 44.24063 | 15.12754 | 43054 ft | 566 kts | 126° |
| 2026-05-08 23:53 | 44.19555 | 15.21804 | 43057 ft | 566 kts | 126° |
| 2026-05-08 23:53 | 44.15056 | 15.30810 | 43058 ft | 566 kts | 126° |
| 2026-05-08 23:54 | 44.10534 | 15.39831 | 43061 ft | 567 kts | 126° |
| 2026-05-08 23:55 | 44.03739 | 15.53336 | 43058 ft | 567 kts | 126° |
| 2026-05-08 23:55 | 43.99206 | 15.62310 | 43054 ft | 566 kts | 126° |
| 2026-05-08 23:56 | 43.94657 | 15.71288 | 43057 ft | 566 kts | 127° |
| 2026-05-08 23:56 | 43.90128 | 15.80201 | 43048 ft | 566 kts | 127° |
| 2026-05-08 23:57 | 43.85578 | 15.89125 | 43053 ft | 566 kts | 127° |
| 2026-05-08 23:57 | 43.81010 | 15.98059 | 43046 ft | 567 kts | 127° |
| 2026-05-08 23:58 | 43.76428 | 16.06992 | 43053 ft | 567 kts | 127° |
| 2026-05-08 23:58 | 43.71860 | 16.15874 | 43056 ft | 567 kts | 127° |
| 2026-05-08 23:59 | 43.67298 | 16.24711 | 43062 ft | 567 kts | 127° |
| 2026-05-08 23:59 | 43.62682 | 16.33630 | 43063 ft | 567 kts | 127° |
| 2026-05-09 00:00 | 43.58104 | 16.42450 | 43061 ft | 567 kts | 127° |
| 2026-05-09 00:00 | 43.53498 | 16.51294 | 43055 ft | 567 kts | 127° |
| 2026-05-09 00:01 | 43.48905 | 16.60090 | 43055 ft | 567 kts | 127° |
| 2026-05-09 00:01 | 43.44265 | 16.68947 | 43035 ft | 568 kts | 128° |
| 2026-05-09 00:02 | 43.39655 | 16.77721 | 43035 ft | 568 kts | 128° |
| 2026-05-09 00:02 | 43.35007 | 16.86541 | 43037 ft | 568 kts | 128° |
| 2026-05-09 00:03 | 43.30383 | 16.95290 | 43036 ft | 568 kts | 128° |
| 2026-05-09 00:03 | 43.25755 | 17.04021 | 43040 ft | 568 kts | 128° |
| 2026-05-09 00:04 | 43.21087 | 17.12799 | 43045 ft | 568 kts | 128° |
| 2026-05-09 00:04 | 43.16436 | 17.21521 | 43052 ft | 569 kts | 128° |
| 2026-05-09 00:05 | 43.11771 | 17.30242 | 43054 ft | 569 kts | 128° |
| 2026-05-09 00:05 | 43.07092 | 17.38965 | 43045 ft | 569 kts | 128° |
| 2026-05-09 00:06 | 43.02381 | 17.47720 | 43049 ft | 569 kts | 128° |
| 2026-05-09 00:06 | 42.97701 | 17.56395 | 43045 ft | 569 kts | 128° |
| 2026-05-09 00:07 | 42.93000 | 17.65081 | 43046 ft | 569 kts | 129° |
| 2026-05-09 00:07 | 42.88256 | 17.73821 | 43032 ft | 569 kts | 129° |
| 2026-05-09 00:08 | 42.83540 | 17.82483 | 43032 ft | 568 kts | 129° |
| 2026-05-09 00:08 | 42.78816 | 17.91137 | 43034 ft | 569 kts | 129° |
| 2026-05-09 00:09 | 42.74103 | 17.99745 | 43034 ft | 569 kts | 129° |
| 2026-05-09 00:09 | 42.69368 | 18.08369 | 43033 ft | 570 kts | 129° |
| 2026-05-09 00:10 | 42.64632 | 18.16970 | 43042 ft | 570 kts | 129° |
| 2026-05-09 00:10 | 42.59145 | 18.24507 | 43040 ft | 556 kts | 153° |
| 2026-05-09 00:11 | 42.52121 | 18.28727 | 43042 ft | 551 kts | 163° |
| 2026-05-09 00:11 | 42.44926 | 18.32231 | 43035 ft | 552 kts | 164° |
| 2026-05-09 00:12 | 42.37671 | 18.35692 | 43036 ft | 552 kts | 164° |
| 2026-05-09 00:12 | 42.30447 | 18.39125 | 43037 ft | 552 kts | 164° |
| 2026-05-09 00:13 | 42.23211 | 18.42553 | 43033 ft | 552 kts | 164° |
| 2026-05-09 00:13 | 42.15951 | 18.45985 | 43042 ft | 552 kts | 164° |
| 2026-05-09 00:14 | 42.08765 | 18.49374 | 43040 ft | 552 kts | 164° |
| 2026-05-09 00:14 | 42.01529 | 18.52779 | 43028 ft | 552 kts | 164° |
| 2026-05-09 00:15 | 41.94299 | 18.56172 | 43026 ft | 552 kts | 164° |
| 2026-05-09 00:15 | 41.87003 | 18.59589 | 43029 ft | 552 kts | 164° |
| 2026-05-09 00:16 | 41.79747 | 18.62978 | 43030 ft | 552 kts | 164° |
| 2026-05-09 00:16 | 41.72492 | 18.66359 | 43018 ft | 552 kts | 165° |
| 2026-05-09 00:17 | 41.65212 | 18.69741 | 43023 ft | 552 kts | 165° |
| 2026-05-09 00:17 | 41.57956 | 18.73108 | 43017 ft | 553 kts | 165° |
| 2026-05-09 00:18 | 41.50713 | 18.76458 | 43010 ft | 553 kts | 165° |
| 2026-05-09 00:18 | 41.43429 | 18.79819 | 43016 ft | 553 kts | 165° |
| 2026-05-09 00:19 | 41.36167 | 18.83164 | 43019 ft | 554 kts | 165° |
| 2026-05-09 00:19 | 41.28911 | 18.86496 | 43020 ft | 553 kts | 165° |
| 2026-05-09 00:20 | 41.21635 | 18.89831 | 43011 ft | 554 kts | 165° |
| 2026-05-09 00:20 | 41.14671 | 18.94318 | 43018 ft | 561 kts | 154° |
| 2026-05-09 00:21 | 41.07910 | 18.99313 | 43009 ft | 562 kts | 154° |
| 2026-05-09 00:21 | 41.01082 | 19.04339 | 43016 ft | 564 kts | 154° |
| 2026-05-09 00:22 | 40.94271 | 19.09339 | 43019 ft | 564 kts | 154° |
| 2026-05-09 00:22 | 40.87366 | 19.14396 | 43034 ft | 563 kts | 154° |
| 2026-05-09 00:23 | 40.80509 | 19.19405 | 43032 ft | 564 kts | 154° |
| 2026-05-09 00:23 | 40.73631 | 19.24417 | 43037 ft | 564 kts | 155° |
| 2026-05-09 00:24 | 40.66757 | 19.29416 | 43033 ft | 565 kts | 154° |
| 2026-05-09 00:24 | 40.59864 | 19.34417 | 43042 ft | 564 kts | 155° |
| 2026-05-09 00:25 | 40.52942 | 19.39427 | 43041 ft | 564 kts | 155° |
| 2026-05-09 00:25 | 40.46043 | 19.44405 | 43045 ft | 564 kts | 155° |
| 2026-05-09 00:26 | 40.39176 | 19.49353 | 43044 ft | 564 kts | 155° |
| 2026-05-09 00:26 | 40.32277 | 19.54310 | 43058 ft | 565 kts | 155° |
| 2026-05-09 00:27 | 40.25370 | 19.59262 | 43069 ft | 565 kts | 155° |
| 2026-05-09 00:27 | 40.18430 | 19.64224 | 43062 ft | 565 kts | 155° |
| 2026-05-09 00:28 | 40.11466 | 19.69194 | 43042 ft | 565 kts | 155° |
| 2026-05-09 00:28 | 40.04569 | 19.74102 | 43041 ft | 566 kts | 155° |
| 2026-05-09 00:29 | 39.97628 | 19.79033 | 43044 ft | 566 kts | 155° |
| 2026-05-09 00:29 | 39.90685 | 19.83937 | 43037 ft | 566 kts | 157° |
| 2026-05-09 00:30 | 39.83416 | 19.87759 | 43037 ft | 562 kts | 163° |
| 2026-05-09 00:30 | 39.76101 | 19.91431 | 43040 ft | 562 kts | 163° |
| 2026-05-09 00:31 | 39.68821 | 19.95081 | 43031 ft | 563 kts | 163° |
| 2026-05-09 00:31 | 39.61528 | 19.98729 | 43033 ft | 563 kts | 163° |
| 2026-05-09 00:32 | 39.54190 | 20.02390 | 43030 ft | 564 kts | 163° |
| 2026-05-09 00:32 | 39.46859 | 20.06043 | 43015 ft | 564 kts | 163° |
| 2026-05-09 00:32 | 39.43380 | 20.08409 | 43023 ft | 572 kts | 148° |
| 2026-05-09 00:33 | 39.40234 | 20.11573 | 43057 ft | 575 kts | 144° |
| 2026-05-09 00:33 | 39.33975 | 20.18053 | 43048 ft | 576 kts | 144° |
| 2026-05-09 00:34 | 39.27701 | 20.24533 | 43033 ft | 578 kts | 144° |
| 2026-05-09 00:34 | 39.21440 | 20.30987 | 43035 ft | 577 kts | 144° |
| 2026-05-09 00:35 | 39.15174 | 20.37442 | 43033 ft | 577 kts | 144° |
| 2026-05-09 00:35 | 39.08895 | 20.43896 | 43024 ft | 578 kts | 144° |
| 2026-05-09 00:36 | 39.02581 | 20.50298 | 43031 ft | 577 kts | 145° |
| 2026-05-09 00:36 | 38.96278 | 20.56586 | 43035 ft | 577 kts | 145° |
| 2026-05-09 00:37 | 38.89917 | 20.62920 | 43039 ft | 577 kts | 145° |
| 2026-05-09 00:37 | 38.83546 | 20.69392 | 43026 ft | 577 kts | 144° |
| 2026-05-09 00:38 | 38.77290 | 20.75830 | 43025 ft | 576 kts | 144° |
| 2026-05-09 00:38 | 38.71005 | 20.82278 | 43041 ft | 575 kts | 144° |
| 2026-05-09 00:39 | 38.64758 | 20.88672 | 43025 ft | 576 kts | 144° |
| 2026-05-09 00:39 | 38.58473 | 20.95148 | 43034 ft | 578 kts | 142° |
| 2026-05-09 00:40 | 38.52494 | 21.01943 | 43042 ft | 578 kts | 141° |
| 2026-05-09 00:40 | 38.46425 | 21.08782 | 42748 ft | 583 kts | 141° |
| 2026-05-09 00:41 | 38.40370 | 21.15588 | 41975 ft | 578 kts | 141° |
| 2026-05-09 00:41 | 38.37389 | 21.18934 | 41608 ft | 573 kts | 142° |
| 2026-05-09 00:41 | 38.34389 | 21.22296 | 41208 ft | 568 kts | 142° |
| 2026-05-09 00:41 | 38.31426 | 21.25612 | 40762 ft | 564 kts | 142° |
| 2026-05-09 00:42 | 38.28532 | 21.28849 | 40322 ft | 559 kts | 142° |
| 2026-05-09 00:42 | 38.25612 | 21.32108 | 39882 ft | 556 kts | 142° |
| 2026-05-09 00:42 | 38.22714 | 21.35341 | 39428 ft | 553 kts | 142° |
| 2026-05-09 00:42 | 38.19812 | 21.38575 | 38962 ft | 548 kts | 142° |
| 2026-05-09 00:43 | 38.16937 | 21.41776 | 38490 ft | 543 kts | 142° |
| 2026-05-09 00:43 | 38.14171 | 21.45007 | 38020 ft | 540 kts | 139° |
| 2026-05-09 00:43 | 38.11482 | 21.48323 | 37552 ft | 534 kts | 139° |
| 2026-05-09 00:43 | 38.08810 | 21.51595 | 37082 ft | 530 kts | 139° |
| 2026-05-09 00:44 | 38.06200 | 21.54780 | 36627 ft | 525 kts | 139° |
| 2026-05-09 00:44 | 38.03539 | 21.58023 | 36152 ft | 521 kts | 139° |
| 2026-05-09 00:44 | 38.00922 | 21.61210 | 35683 ft | 518 kts | 139° |
| 2026-05-09 00:44 | 37.98341 | 21.64350 | 35226 ft | 514 kts | 139° |
| 2026-05-09 00:45 | 37.95737 | 21.67514 | 34737 ft | 509 kts | 140° |
| 2026-05-09 00:45 | 37.93172 | 21.70626 | 34262 ft | 506 kts | 140° |
| 2026-05-09 00:45 | 37.90644 | 21.73692 | 33804 ft | 504 kts | 140° |
| 2026-05-09 00:45 | 37.88103 | 21.76771 | 33340 ft | 499 kts | 140° |
| 2026-05-09 00:46 | 37.85612 | 21.79784 | 32885 ft | 494 kts | 140° |
| 2026-05-09 00:46 | 37.83145 | 21.82766 | 32426 ft | 489 kts | 140° |
| 2026-05-09 00:46 | 37.80684 | 21.85740 | 31968 ft | 483 kts | 140° |
| 2026-05-09 00:46 | 37.78255 | 21.88670 | 31508 ft | 479 kts | 140° |
| 2026-05-09 00:47 | 37.75835 | 21.91587 | 31061 ft | 476 kts | 140° |
| 2026-05-09 00:47 | 37.73465 | 21.94440 | 30663 ft | 471 kts | 140° |
| 2026-05-09 00:47 | 37.71092 | 21.97298 | 30265 ft | 466 kts | 140° |
| 2026-05-09 00:47 | 37.68760 | 22.00102 | 29868 ft | 463 kts | 140° |
| 2026-05-09 00:48 | 37.66426 | 22.02904 | 29474 ft | 460 kts | 140° |
| 2026-05-09 00:48 | 37.64099 | 22.05696 | 29083 ft | 456 kts | 140° |
| 2026-05-09 00:48 | 37.61826 | 22.08419 | 28691 ft | 455 kts | 140° |
| 2026-05-09 00:48 | 37.59518 | 22.11185 | 28297 ft | 452 kts | 140° |
| 2026-05-09 00:49 | 37.57250 | 22.13899 | 27908 ft | 449 kts | 140° |
| 2026-05-09 00:49 | 37.54982 | 22.16611 | 27514 ft | 447 kts | 140° |
| 2026-05-09 00:49 | 37.52716 | 22.19317 | 27125 ft | 445 kts | 140° |
| 2026-05-09 00:49 | 37.50456 | 22.22015 | 26783 ft | 443 kts | 140° |
| 2026-05-09 00:50 | 37.48218 | 22.24683 | 26472 ft | 442 kts | 140° |
| 2026-05-09 00:50 | 37.45985 | 22.27343 | 26165 ft | 440 kts | 139° |
| 2026-05-09 00:50 | 37.43757 | 22.29996 | 25856 ft | 439 kts | 139° |
| 2026-05-09 00:50 | 37.41546 | 22.32628 | 25551 ft | 438 kts | 140° |
| 2026-05-09 00:51 | 37.39256 | 22.35161 | 25242 ft | 434 kts | 144° |
| 2026-05-09 00:51 | 37.36895 | 22.37529 | 24939 ft | 432 kts | 144° |
| 2026-05-09 00:51 | 37.34559 | 22.39873 | 24634 ft | 431 kts | 144° |
| 2026-05-09 00:51 | 37.32226 | 22.42216 | 24334 ft | 428 kts | 144° |
| 2026-05-09 00:52 | 37.29911 | 22.44540 | 24038 ft | 426 kts | 144° |
| 2026-05-09 00:52 | 37.27587 | 22.46870 | 23736 ft | 425 kts | 144° |
| 2026-05-09 00:52 | 37.25295 | 22.49168 | 23436 ft | 422 kts | 144° |
| 2026-05-09 00:52 | 37.22996 | 22.51469 | 23135 ft | 422 kts | 144° |
| 2026-05-09 00:53 | 37.20726 | 22.53742 | 22850 ft | 419 kts | 144° |
| 2026-05-09 00:53 | 37.18449 | 22.56018 | 22557 ft | 417 kts | 144° |
| 2026-05-09 00:53 | 37.16157 | 22.58308 | 22263 ft | 416 kts | 144° |
| 2026-05-09 00:53 | 37.13909 | 22.60552 | 21985 ft | 417 kts | 144° |
| 2026-05-09 00:54 | 37.11603 | 22.62852 | 21752 ft | 422 kts | 144° |
| 2026-05-09 00:54 | 37.09309 | 22.65137 | 21524 ft | 425 kts | 145° |
| 2026-05-09 00:54 | 37.06979 | 22.67459 | 21271 ft | 424 kts | 145° |
| 2026-05-09 00:54 | 37.04650 | 22.69777 | 21021 ft | 421 kts | 145° |
| 2026-05-09 00:55 | 37.02354 | 22.72060 | 20774 ft | 422 kts | 144° |
| 2026-05-09 00:55 | 37.00029 | 22.74371 | 20521 ft | 421 kts | 144° |
| 2026-05-09 00:55 | 36.97749 | 22.76633 | 20274 ft | 420 kts | 145° |
| 2026-05-09 00:55 | 36.95454 | 22.78910 | 20030 ft | 416 kts | 144° |
| 2026-05-09 00:56 | 36.93180 | 22.81164 | 19785 ft | 415 kts | 144° |
| 2026-05-09 00:56 | 36.90897 | 22.83424 | 19537 ft | 416 kts | 144° |
| 2026-05-09 00:56 | 36.88602 | 22.85696 | 19284 ft | 414 kts | 145° |
| 2026-05-09 00:56 | 36.86292 | 22.87982 | 19023 ft | 414 kts | 144° |
| 2026-05-09 00:57 | 36.84037 | 22.90209 | 18774 ft | 411 kts | 144° |
| 2026-05-09 00:57 | 36.81802 | 22.92416 | 18523 ft | 409 kts | 144° |
| 2026-05-09 00:57 | 36.79567 | 22.94621 | 18271 ft | 407 kts | 144° |
| 2026-05-09 00:57 | 36.77346 | 22.96810 | 18023 ft | 408 kts | 145° |
| 2026-05-09 00:58 | 36.75106 | 22.99016 | 17779 ft | 403 kts | 144° |
| 2026-05-09 00:58 | 36.72922 | 23.01165 | 17543 ft | 404 kts | 144° |
| 2026-05-09 00:58 | 36.70721 | 23.03332 | 17301 ft | 403 kts | 144° |
| 2026-05-09 00:58 | 36.68513 | 23.05503 | 17065 ft | 400 kts | 144° |
| 2026-05-09 00:59 | 36.66354 | 23.07622 | 16834 ft | 397 kts | 144° |
| 2026-05-09 00:59 | 36.64194 | 23.09742 | 16596 ft | 396 kts | 145° |
| 2026-05-09 00:59 | 36.62020 | 23.11873 | 16364 ft | 393 kts | 145° |
| 2026-05-09 00:59 | 36.59896 | 23.13955 | 16128 ft | 391 kts | 145° |
| 2026-05-09 01:00 | 36.57755 | 23.16052 | 15896 ft | 389 kts | 145° |
| 2026-05-09 01:00 | 36.55638 | 23.18124 | 15656 ft | 385 kts | 145° |
| 2026-05-09 01:00 | 36.53532 | 23.20182 | 15419 ft | 385 kts | 145° |
| 2026-05-09 01:00 | 36.51458 | 23.22209 | 15183 ft | 382 kts | 145° |
| 2026-05-09 01:01 | 36.49368 | 23.24250 | 14948 ft | 379 kts | 145° |
| 2026-05-09 01:01 | 36.47312 | 23.26256 | 14715 ft | 377 kts | 145° |
| 2026-05-09 01:01 | 36.45258 | 23.28259 | 14476 ft | 376 kts | 145° |
| 2026-05-09 01:01 | 36.43195 | 23.30270 | 14234 ft | 374 kts | 145° |
| 2026-05-09 01:02 | 36.41165 | 23.32246 | 13999 ft | 370 kts | 145° |
| 2026-05-09 01:02 | 36.39151 | 23.34205 | 13769 ft | 367 kts | 145° |
| 2026-05-09 01:02 | 36.37150 | 23.36152 | 13529 ft | 365 kts | 145° |
| 2026-05-09 01:02 | 36.35134 | 23.38110 | 13290 ft | 363 kts | 145° |
| 2026-05-09 01:03 | 36.33152 | 23.40035 | 13055 ft | 361 kts | 145° |
| 2026-05-09 01:03 | 36.31184 | 23.41945 | 12817 ft | 358 kts | 146° |
| 2026-05-09 01:03 | 36.29222 | 23.43847 | 12574 ft | 358 kts | 146° |
| 2026-05-09 01:03 | 36.27266 | 23.45742 | 12341 ft | 355 kts | 145° |
| 2026-05-09 01:04 | 36.25316 | 23.47631 | 12103 ft | 354 kts | 145° |
| 2026-05-09 01:04 | 36.23376 | 23.49509 | 11861 ft | 353 kts | 145° |
| 2026-05-09 01:04 | 36.21444 | 23.51380 | 11625 ft | 350 kts | 145° |
| 2026-05-09 01:04 | 36.19526 | 23.53232 | 11386 ft | 349 kts | 145° |
| 2026-05-09 01:05 | 36.17623 | 23.55071 | 11146 ft | 346 kts | 145° |
| 2026-05-09 01:05 | 36.15722 | 23.56907 | 10909 ft | 344 kts | 145° |
| 2026-05-09 01:05 | 36.12051 | 23.60451 | 10418 ft | 322 kts | 145° |
| 2026-05-09 01:06 | 36.10315 | 23.62125 | 10164 ft | 311 kts | 146° |
| 2026-05-09 01:06 | 36.08626 | 23.63751 | 9920 ft | 305 kts | 146° |
| 2026-05-09 01:06 | 36.06949 | 23.65364 | 9673 ft | 303 kts | 146° |
| 2026-05-09 01:06 | 36.05262 | 23.66986 | 9422 ft | 300 kts | 146° |
| 2026-05-09 01:07 | 36.03624 | 23.68561 | 9175 ft | 299 kts | 146° |
| 2026-05-09 01:07 | 36.01974 | 23.70146 | 8924 ft | 298 kts | 146° |
| 2026-05-09 01:07 | 36.00343 | 23.71712 | 8678 ft | 296 kts | 146° |
| 2026-05-09 01:07 | 35.98720 | 23.73271 | 8429 ft | 295 kts | 146° |
| 2026-05-09 01:08 | 35.97089 | 23.74836 | 8177 ft | 293 kts | 146° |
| 2026-05-09 01:08 | 35.95484 | 23.76375 | 7929 ft | 292 kts | 146° |
| 2026-05-09 01:08 | 35.93882 | 23.77911 | 7680 ft | 290 kts | 145° |
| 2026-05-09 01:08 | 35.92293 | 23.79433 | 7431 ft | 289 kts | 146° |
| 2026-05-09 01:09 | 35.90709 | 23.80953 | 7186 ft | 289 kts | 146° |
| 2026-05-09 01:09 | 35.89128 | 23.82467 | 6939 ft | 288 kts | 146° |
| 2026-05-09 01:09 | 35.87546 | 23.83981 | 6692 ft | 287 kts | 146° |
| 2026-05-09 01:09 | 35.85960 | 23.85498 | 6439 ft | 282 kts | 146° |
| 2026-05-09 01:10 | 35.84435 | 23.86955 | 6184 ft | 274 kts | 145° |
| 2026-05-09 01:10 | 35.82948 | 23.88376 | 5929 ft | 267 kts | 145° |
| 2026-05-09 01:10 | 35.81493 | 23.89765 | 5678 ft | 261 kts | 145° |
| 2026-05-09 01:10 | 35.80057 | 23.91121 | 5425 ft | 256 kts | 149° |
| 2026-05-09 01:11 | 35.78429 | 23.91742 | 5176 ft | 244 kts | 185° |
| 2026-05-09 01:11 | 35.76821 | 23.91212 | 4957 ft | 238 kts | 206° |
| 2026-05-09 01:11 | 35.75317 | 23.90375 | 4715 ft | 238 kts | 207° |
| 2026-05-09 01:11 | 35.73807 | 23.89487 | 4466 ft | 237 kts | 207° |
| 2026-05-09 01:12 | 35.72324 | 23.88601 | 4220 ft | 235 kts | 207° |
| 2026-05-09 01:12 | 35.70869 | 23.87728 | 3973 ft | 231 kts | 207° |
| 2026-05-09 01:12 | 35.69424 | 23.86858 | 3719 ft | 227 kts | 207° |
| 2026-05-09 01:12 | 35.68021 | 23.86037 | 3544 ft | 223 kts | 201° |
| 2026-05-09 01:13 | 35.66480 | 23.86048 | 3421 ft | 227 kts | 162° |
| 2026-05-09 01:13 | 35.65206 | 23.87199 | 3357 ft | 231 kts | 139° |
| 2026-05-09 01:13 | 35.64043 | 23.88576 | 3338 ft | 230 kts | 140° |
| 2026-05-09 01:13 | 35.62912 | 23.89911 | 3324 ft | 218 kts | 140° |
| 2026-05-09 01:14 | 35.61859 | 23.91159 | 3367 ft | 200 kts | 140° |
| 2026-05-09 01:14 | 35.60877 | 23.92315 | 3309 ft | 191 kts | 140° |
| 2026-05-09 01:14 | 35.60065 | 23.93602 | 3260 ft | 193 kts | 115° |
| 2026-05-09 01:14 | 35.59621 | 23.95163 | 3217 ft | 194 kts | 114° |
| 2026-05-09 01:15 | 35.59146 | 23.96712 | 3091 ft | 192 kts | 114° |
| 2026-05-09 01:15 | 35.58657 | 23.98237 | 2968 ft | 190 kts | 115° |
| 2026-05-09 01:15 | 35.58168 | 23.99738 | 2846 ft | 190 kts | 115° |
| 2026-05-09 01:15 | 35.57673 | 24.01246 | 2746 ft | 188 kts | 115° |
| 2026-05-09 01:16 | 35.57183 | 24.02735 | 2653 ft | 180 kts | 115° |
| 2026-05-09 01:16 | 35.56743 | 24.04074 | 2315 ft | 162 kts | 115° |
| 2026-05-09 01:16 | 35.56336 | 24.05304 | 1925 ft | 150 kts | 114° |
| 2026-05-09 01:17 | 35.55599 | 24.07531 | 1282 ft | 130 kts | 113° |
| 2026-05-09 01:17 | 35.55283 | 24.08486 | 1050 ft | 125 kts | 113° |
| 2026-05-09 01:17 | 35.55075 | 24.09115 | 948 ft | 123 kts | 113° |
| 2026-05-09 01:18 | 35.54753 | 24.10091 | 952 ft | 123 kts | 113° |
| 2026-05-09 01:18 | 35.54435 | 24.11084 | 854 ft | 125 kts | 111° |
| 2026-05-09 01:18 | 35.54120 | 24.12089 | 704 ft | 125 kts | 112° |
| 2026-05-09 01:18 | 35.53790 | 24.13078 | 522 ft | 124 kts | 112° |
| 2026-05-09 01:19 | 35.53481 | 24.14018 | 440 ft | 106 kts | 111° |
| 2026-05-09 01:19 | 35.53275 | 24.14646 | 452 ft | 45 kts | 111° |
| 2026-05-09 01:19 | 35.53155 | 24.15015 | 459 ft | 22 kts | 111° |
| 2026-05-09 01:19 | 35.53191 | 24.15137 | 458 ft | 15 kts | 19° |
| 2026-05-09 01:20 | 35.53305 | 24.15210 | 450 ft | 20 kts | 40° |
| 2026-05-09 01:20 | 35.53398 | 24.15347 | 446 ft | 21 kts | 62° |
| 2026-05-09 01:20 | 35.53431 | 24.15481 | 447 ft | 9 kts | 88° |
| 2026-05-09 01:20 | 35.53421 | 24.15554 | 447 ft | 7 kts | 117° |
| 2026-05-09 01:21 | 35.53377 | 24.15556 | 449 ft | 5 kts | 212° |
| 2026-05-09 01:21 | 35.53370 | 24.15515 | 449 ft | 5 kts | 309° |
| 2026-05-09 01:21 | 35.53387 | 24.15509 | 448 ft | 0 kts | 358° |